sensor_id;sensor_type;location;lat;lon;timestamp;pressure;altitude;pressure_sealevel;temperature;humidity
46408;BME280;32110;45.724;21.276;2023-04-30T00:02:13;100313.28;;;11.15;nan
46408;BME280;32110;45.724;21.276;2023-04-30T00:04:38;100327.59;;;11.19;nan
46408;BME280;32110;45.724;21.276;2023-04-30T00:07:04;100329.66;;;11.17;nan
46408;BME280;32110;45.724;21.276;2023-04-30T00:09:29;100334.47;;;11.20;nan
46408;BME280;32110;45.724;21.276;2023-04-30T00:11:55;100330.47;;;11.18;nan
46408;BME280;32110;45.724;21.276;2023-04-30T00:14:20;100327.28;;;11.16;nan
46408;BME280;32110;45.724;21.276;2023-04-30T00:16:45;100318.09;;;11.06;nan
46408;BME280;32110;45.724;21.276;2023-04-30T00:19:11;100319.91;;;11.06;nan
46408;BME280;32110;45.724;21.276;2023-04-30T00:21:36;100319.91;;;11.06;nan
46408;BME280;32110;45.724;21.276;2023-04-30T00:24:02;100316.16;;;11.02;nan
46408;BME280;32110;45.724;21.276;2023-04-30T00:26:28;100323.03;;;11.03;nan
46408;BME280;32110;45.724;21.276;2023-04-30T00:28:53;100312.84;;;10.95;nan
46408;BME280;32110;45.724;21.276;2023-04-30T00:31:18;100319.69;;;10.96;nan
46408;BME280;32110;45.724;21.276;2023-04-30T00:33:44;100325.31;;;10.88;nan
46408;BME280;32110;45.724;21.276;2023-04-30T00:36:09;100320.38;;;10.79;nan
46408;BME280;32110;45.724;21.276;2023-04-30T00:38:35;100325.44;;;10.81;nan
46408;BME280;32110;45.724;21.276;2023-04-30T00:41:00;100313.84;;;10.70;nan
46408;BME280;32110;45.724;21.276;2023-04-30T00:43:26;100323.94;;;10.73;nan
46408;BME280;32110;45.724;21.276;2023-04-30T00:45:51;100306.75;;;10.59;nan
46408;BME280;32110;45.724;21.276;2023-04-30T00:48:17;100326.22;;;10.70;nan
46408;BME280;32110;45.724;21.276;2023-04-30T00:50:43;100329.31;;;10.67;nan
46408;BME280;32110;45.724;21.276;2023-04-30T00:53:10;100316.03;;;10.61;nan
46408;BME280;32110;45.724;21.276;2023-04-30T00:55:36;100319.13;;;10.58;nan
46408;BME280;32110;45.724;21.276;2023-04-30T00:58:02;100316.56;;;10.52;nan
46408;BME280;32110;45.724;21.276;2023-04-30T01:00:27;100313.00;;;10.46;nan
46408;BME280;32110;45.724;21.276;2023-04-30T01:02:54;100321.59;;;10.41;nan
46408;BME280;32110;45.724;21.276;2023-04-30T01:05:20;100318.81;;;10.36;nan
46408;BME280;32110;45.724;21.276;2023-04-30T01:07:48;100309.47;;;10.22;nan
46408;BME280;32110;45.724;21.276;2023-04-30T01:10:14;100330.19;;;10.18;nan
46408;BME280;32110;45.724;21.276;2023-04-30T01:12:57;100317.44;;;10.04;nan
46408;BME280;32110;45.724;21.276;2023-04-30T01:15:41;100323.28;;;10.06;nan
46408;BME280;32110;45.724;21.276;2023-04-30T01:18:18;100317.66;;;10.02;nan
46408;BME280;32110;45.724;21.276;2023-04-30T01:20:59;100319.78;;;9.93;nan
46408;BME280;32110;45.724;21.276;2023-04-30T01:29:02;100320.75;;;9.80;nan
46408;BME280;32110;45.724;21.276;2023-04-30T01:31:28;100318.34;;;9.79;nan
46408;BME280;32110;45.724;21.276;2023-04-30T01:33:53;100314.34;;;9.76;nan
46408;BME280;32110;45.724;21.276;2023-04-30T01:36:44;100322.00;;;9.78;nan
46408;BME280;32110;45.724;21.276;2023-04-30T01:39:34;100316.47;;;9.68;nan
46408;BME280;32110;45.724;21.276;2023-04-30T01:47:38;100302.03;;;9.40;nan
46408;BME280;32110;45.724;21.276;2023-04-30T01:55:13;100329.34;;;9.39;nan
46408;BME280;32110;45.724;21.276;2023-04-30T01:57:45;100329.59;;;9.31;nan
46408;BME280;32110;45.724;21.276;2023-04-30T02:00:15;100327.41;;;9.28;nan
46408;BME280;32110;45.724;21.276;2023-04-30T02:02:42;100333.72;;;9.27;nan
46408;BME280;32110;45.724;21.276;2023-04-30T02:05:07;100331.28;;;9.25;nan
46408;BME280;32110;45.724;21.276;2023-04-30T02:07:44;100330.50;;;9.25;nan
46408;BME280;32110;45.724;21.276;2023-04-30T02:10:11;100333.13;;;9.25;nan
46408;BME280;32110;45.724;21.276;2023-04-30T02:12:37;100320.25;;;9.16;nan
46408;BME280;32110;45.724;21.276;2023-04-30T02:15:03;100333.13;;;9.25;nan
46408;BME280;32110;45.724;21.276;2023-04-30T02:17:29;100321.13;;;9.10;nan
46408;BME280;32110;45.724;21.276;2023-04-30T02:19:56;100323.13;;;9.15;nan
46408;BME280;32110;45.724;21.276;2023-04-30T02:22:21;100329.16;;;9.15;nan
46408;BME280;32110;45.724;21.276;2023-04-30T02:24:46;100319.94;;;9.06;nan
46408;BME280;32110;45.724;21.276;2023-04-30T02:27:12;100328.22;;;9.10;nan
46408;BME280;32110;45.724;21.276;2023-04-30T02:29:37;100323.63;;;9.05;nan
46408;BME280;32110;45.724;21.276;2023-04-30T02:32:03;100332.28;;;9.06;nan
46408;BME280;32110;45.724;21.276;2023-04-30T02:34:28;100311.38;;;8.92;nan
46408;BME280;32110;45.724;21.276;2023-04-30T02:36:54;100314.16;;;8.98;nan
46408;BME280;32110;45.724;21.276;2023-04-30T02:39:19;100324.47;;;8.99;nan
46408;BME280;32110;45.724;21.276;2023-04-30T02:41:44;100324.09;;;8.96;nan
46408;BME280;32110;45.724;21.276;2023-04-30T02:44:10;100310.44;;;8.87;nan
46408;BME280;32110;45.724;21.276;2023-04-30T02:46:36;100326.34;;;8.92;nan
46408;BME280;32110;45.724;21.276;2023-04-30T02:49:01;100321.72;;;8.87;nan
46408;BME280;32110;45.724;21.276;2023-04-30T02:51:26;100337.28;;;8.89;nan
46408;BME280;32110;45.724;21.276;2023-04-30T02:53:52;100330.06;;;8.84;nan
46408;BME280;32110;45.724;21.276;2023-04-30T02:56:18;100337.69;;;8.86;nan
46408;BME280;32110;45.724;21.276;2023-04-30T02:58:43;100330.50;;;8.81;nan
46408;BME280;32110;45.724;21.276;2023-04-30T03:01:08;100334.91;;;8.81;nan
46408;BME280;32110;45.724;21.276;2023-04-30T03:03:34;100340.41;;;8.79;nan
46408;BME280;32110;45.724;21.276;2023-04-30T03:05:59;100338.41;;;8.75;nan
46408;BME280;32110;45.724;21.276;2023-04-30T03:08:25;100333.22;;;8.68;nan
46408;BME280;32110;45.724;21.276;2023-04-30T03:10:50;100333.00;;;8.69;nan
46408;BME280;32110;45.724;21.276;2023-04-30T03:13:16;100345.06;;;8.77;nan
46408;BME280;32110;45.724;21.276;2023-04-30T03:15:42;100339.56;;;8.79;nan
46408;BME280;32110;45.724;21.276;2023-04-30T03:18:08;100335.75;;;8.81;nan
46408;BME280;32110;45.724;21.276;2023-04-30T03:20:34;100335.34;;;8.78;nan
46408;BME280;32110;45.724;21.276;2023-04-30T03:23:00;100336.94;;;8.79;nan
46408;BME280;32110;45.724;21.276;2023-04-30T03:25:25;100331.19;;;8.70;nan
46408;BME280;32110;45.724;21.276;2023-04-30T03:27:50;100344.91;;;8.72;nan
46408;BME280;32110;45.724;21.276;2023-04-30T03:30:16;100346.28;;;8.75;nan
46408;BME280;32110;45.724;21.276;2023-04-30T03:32:41;100339.66;;;8.72;nan
46408;BME280;32110;45.724;21.276;2023-04-30T03:35:07;100351.06;;;8.84;nan
46408;BME280;32110;45.724;21.276;2023-04-30T03:37:33;100340.75;;;8.83;nan
46408;BME280;32110;45.724;21.276;2023-04-30T03:39:58;100352.81;;;8.90;nan
46408;BME280;32110;45.724;21.276;2023-04-30T06:17:36;100460.28;;;9.86;nan
46408;BME280;32110;45.724;21.276;2023-04-30T07:37:40;100489.41;;;12.93;nan
46408;BME280;32110;45.724;21.276;2023-04-30T07:45:03;100468.84;;;13.29;nan
46408;BME280;32110;45.724;21.276;2023-04-30T10:01:45;100463.56;;;18.41;nan
46408;BME280;32110;45.724;21.276;2023-04-30T10:36:46;100404.44;;;19.03;nan
46408;BME280;32110;45.724;21.276;2023-04-30T10:44:06;100413.16;;;18.84;nan
46408;BME280;32110;45.724;21.276;2023-04-30T10:46:34;100382.09;;;18.94;nan
46408;BME280;32110;45.724;21.276;2023-04-30T10:49:00;100369.28;;;18.96;nan
46408;BME280;32110;45.724;21.276;2023-04-30T10:51:45;100393.38;;;19.15;nan
46408;BME280;32110;45.724;21.276;2023-04-30T10:59:03;100378.97;;;19.40;nan
46408;BME280;32110;45.724;21.276;2023-04-30T11:01:29;100393.25;;;19.25;nan
46408;BME280;32110;45.724;21.276;2023-04-30T11:09:44;100380.34;;;19.13;nan
46408;BME280;32110;45.724;21.276;2023-04-30T11:12:20;100367.16;;;19.22;nan
46408;BME280;32110;45.724;21.276;2023-04-30T11:14:52;100411.84;;;19.11;nan
46408;BME280;32110;45.724;21.276;2023-04-30T11:17:23;100401.63;;;19.18;nan
46408;BME280;32110;45.724;21.276;2023-04-30T11:19:49;100292.97;;;19.19;nan
46408;BME280;32110;45.724;21.276;2023-04-30T11:27:26;100352.50;;;19.19;nan
46408;BME280;32110;45.724;21.276;2023-04-30T11:29:53;100348.19;;;19.23;nan
46408;BME280;32110;45.724;21.276;2023-04-30T11:34:45;100348.69;;;19.25;nan
46408;BME280;32110;45.724;21.276;2023-04-30T11:37:15;100347.03;;;19.29;nan
46408;BME280;32110;45.724;21.276;2023-04-30T11:39:41;100347.59;;;19.26;nan
46408;BME280;32110;45.724;21.276;2023-04-30T11:42:07;100330.00;;;19.25;nan
46408;BME280;32110;45.724;21.276;2023-04-30T11:44:33;100367.44;;;19.20;nan
46408;BME280;32110;45.724;21.276;2023-04-30T11:46:59;100361.28;;;19.20;nan
46408;BME280;32110;45.724;21.276;2023-04-30T11:49:25;100350.91;;;19.18;nan
46408;BME280;32110;45.724;21.276;2023-04-30T11:51:51;100359.13;;;19.22;nan
46408;BME280;32110;45.724;21.276;2023-04-30T11:54:17;100318.50;;;19.25;nan
46408;BME280;32110;45.724;21.276;2023-04-30T11:56:46;100348.63;;;19.30;nan
46408;BME280;32110;45.724;21.276;2023-04-30T12:01:41;100346.41;;;19.38;nan
46408;BME280;32110;45.724;21.276;2023-04-30T12:04:07;100345.13;;;19.35;nan
46408;BME280;32110;45.724;21.276;2023-04-30T12:09:00;100342.22;;;19.31;nan
46408;BME280;32110;45.724;21.276;2023-04-30T12:11:28;100341.75;;;19.24;nan
46408;BME280;32110;45.724;21.276;2023-04-30T12:14:02;100329.78;;;19.22;nan
46408;BME280;32110;45.724;21.276;2023-04-30T12:16:38;100324.16;;;19.23;nan
46408;BME280;32110;45.724;21.276;2023-04-30T12:19:07;100329.19;;;19.25;nan
46408;BME280;32110;45.724;21.276;2023-04-30T12:21:34;100335.41;;;19.20;nan
46408;BME280;32110;45.724;21.276;2023-04-30T12:23:59;100312.78;;;19.12;nan
46408;BME280;32110;45.724;21.276;2023-04-30T12:26:36;100323.38;;;19.23;nan
46408;BME280;32110;45.724;21.276;2023-04-30T12:29:04;100320.91;;;19.26;nan
46408;BME280;32110;45.724;21.276;2023-04-30T12:31:33;100318.47;;;19.30;nan
46408;BME280;32110;45.724;21.276;2023-04-30T12:34:11;100320.00;;;19.36;nan
46408;BME280;32110;45.724;21.276;2023-04-30T12:36:39;100319.13;;;19.41;nan
46408;BME280;32110;45.724;21.276;2023-04-30T12:39:12;100322.78;;;19.50;nan
46408;BME280;32110;45.724;21.276;2023-04-30T12:41:42;100307.81;;;19.49;nan
46408;BME280;32110;45.724;21.276;2023-04-30T12:44:20;100305.66;;;19.51;nan
46408;BME280;32110;45.724;21.276;2023-04-30T12:46:50;100313.22;;;19.44;nan
46408;BME280;32110;45.724;21.276;2023-04-30T12:52:00;100308.97;;;19.43;nan
46408;BME280;32110;45.724;21.276;2023-04-30T12:54:32;100292.94;;;19.43;nan
46408;BME280;32110;45.724;21.276;2023-04-30T12:57:16;100306.88;;;19.40;nan
46408;BME280;32110;45.724;21.276;2023-04-30T13:02:16;100283.25;;;19.28;nan
46408;BME280;32110;45.724;21.276;2023-04-30T13:07:07;100278.78;;;19.23;nan
46408;BME280;32110;45.724;21.276;2023-04-30T13:09:34;100241.34;;;19.28;nan
46408;BME280;32110;45.724;21.276;2023-04-30T13:11:59;100283.78;;;19.30;nan
46408;BME280;32110;45.724;21.276;2023-04-30T13:14:25;100288.03;;;19.31;nan
46408;BME280;32110;45.724;21.276;2023-04-30T13:16:51;100282.63;;;19.36;nan
46408;BME280;32110;45.724;21.276;2023-04-30T13:19:18;100275.47;;;19.31;nan
46408;BME280;32110;45.724;21.276;2023-04-30T13:21:43;100275.81;;;19.25;nan
46408;BME280;32110;45.724;21.276;2023-04-30T13:26:34;100282.69;;;19.31;nan
46408;BME280;32110;45.724;21.276;2023-04-30T13:28:59;100275.97;;;19.33;nan
46408;BME280;32110;45.724;21.276;2023-04-30T13:31:25;100211.31;;;19.37;nan
46408;BME280;32110;45.724;21.276;2023-04-30T13:33:51;100274.47;;;19.46;nan
46408;BME280;32110;45.724;21.276;2023-04-30T13:36:18;100266.84;;;19.59;nan
46408;BME280;32110;45.724;21.276;2023-04-30T13:38:44;100290.31;;;19.62;nan
46408;BME280;32110;45.724;21.276;2023-04-30T13:41:09;100267.75;;;19.73;nan
46408;BME280;32110;45.724;21.276;2023-04-30T13:43:35;100191.91;;;19.88;nan
46408;BME280;32110;45.724;21.276;2023-04-30T13:50:53;100312.19;;;20.21;nan
46408;BME280;32110;45.724;21.276;2023-04-30T13:53:18;100303.47;;;20.15;nan
46408;BME280;32110;45.724;21.276;2023-04-30T13:55:44;100295.53;;;20.10;nan
46408;BME280;32110;45.724;21.276;2023-04-30T13:58:09;100296.81;;;20.12;nan
46408;BME280;32110;45.724;21.276;2023-04-30T14:00:35;100299.03;;;20.24;nan
46408;BME280;32110;45.724;21.276;2023-04-30T14:03:00;100290.75;;;20.26;nan
46408;BME280;32110;45.724;21.276;2023-04-30T14:05:26;100300.16;;;20.37;nan
46408;BME280;32110;45.724;21.276;2023-04-30T14:07:52;100296.75;;;20.50;nan
46408;BME280;32110;45.724;21.276;2023-04-30T14:10:17;100292.19;;;20.51;nan
46408;BME280;32110;45.724;21.276;2023-04-30T14:12:42;100289.59;;;20.46;nan
46408;BME280;32110;45.724;21.276;2023-04-30T14:15:08;100290.31;;;20.51;nan
46408;BME280;32110;45.724;21.276;2023-04-30T14:17:34;100297.38;;;20.61;nan
46408;BME280;32110;45.724;21.276;2023-04-30T14:19:59;100308.91;;;20.62;nan
46408;BME280;32110;45.724;21.276;2023-04-30T14:22:25;100305.72;;;20.59;nan
46408;BME280;32110;45.724;21.276;2023-04-30T14:24:53;100307.63;;;20.54;nan
46408;BME280;32110;45.724;21.276;2023-04-30T14:27:19;100309.69;;;20.62;nan
46408;BME280;32110;45.724;21.276;2023-04-30T14:29:45;100312.66;;;20.60;nan
46408;BME280;32110;45.724;21.276;2023-04-30T14:32:12;100318.00;;;20.60;nan
46408;BME280;32110;45.724;21.276;2023-04-30T14:34:38;100300.22;;;20.51;nan
46408;BME280;32110;45.724;21.276;2023-04-30T14:37:04;100285.53;;;20.48;nan
46408;BME280;32110;45.724;21.276;2023-04-30T14:39:29;100292.91;;;20.56;nan
46408;BME280;32110;45.724;21.276;2023-04-30T14:41:55;100290.91;;;20.48;nan
46408;BME280;32110;45.724;21.276;2023-04-30T14:44:21;100298.53;;;20.55;nan
46408;BME280;32110;45.724;21.276;2023-04-30T14:46:49;100317.22;;;20.41;nan
46408;BME280;32110;45.724;21.276;2023-04-30T14:49:15;100309.59;;;19.77;nan
46408;BME280;32110;45.724;21.276;2023-04-30T14:51:40;100311.88;;;19.65;nan
46408;BME280;32110;45.724;21.276;2023-04-30T14:54:06;100304.31;;;19.29;nan
46408;BME280;32110;45.724;21.276;2023-04-30T14:56:31;100313.63;;;19.32;nan
46408;BME280;32110;45.724;21.276;2023-04-30T14:58:57;100310.34;;;19.16;nan
46408;BME280;32110;45.724;21.276;2023-04-30T15:01:22;100332.28;;;19.13;nan
46408;BME280;32110;45.724;21.276;2023-04-30T15:03:47;100319.59;;;19.00;nan
46408;BME280;32110;45.724;21.276;2023-04-30T15:06:13;100345.97;;;18.72;nan
46408;BME280;32110;45.724;21.276;2023-04-30T15:08:39;100331.41;;;18.59;nan
46408;BME280;32110;45.724;21.276;2023-04-30T15:11:05;100345.25;;;18.32;nan
46408;BME280;32110;45.724;21.276;2023-04-30T15:13:34;100333.16;;;18.05;nan
46408;BME280;32110;45.724;21.276;2023-04-30T15:15:59;100350.81;;;17.91;nan
46408;BME280;32110;45.724;21.276;2023-04-30T15:18:25;100346.09;;;17.73;nan
46408;BME280;32110;45.724;21.276;2023-04-30T15:20:50;100344.47;;;17.72;nan
46408;BME280;32110;45.724;21.276;2023-04-30T15:23:16;100349.84;;;17.61;nan
46408;BME280;32110;45.724;21.276;2023-04-30T15:25:41;100346.44;;;17.51;nan
46408;BME280;32110;45.724;21.276;2023-04-30T15:28:08;100322.78;;;17.44;nan
46408;BME280;32110;45.724;21.276;2023-04-30T15:30:33;100347.47;;;17.60;nan
46408;BME280;32110;45.724;21.276;2023-04-30T15:32:59;100363.97;;;17.62;nan
46408;BME280;32110;45.724;21.276;2023-04-30T15:35:25;100364.78;;;17.57;nan
46408;BME280;32110;45.724;21.276;2023-04-30T15:37:51;100370.13;;;17.47;nan
46408;BME280;32110;45.724;21.276;2023-04-30T15:40:17;100365.91;;;17.46;nan
46408;BME280;32110;45.724;21.276;2023-04-30T15:42:42;100364.84;;;17.42;nan
46408;BME280;32110;45.724;21.276;2023-04-30T15:45:08;100377.63;;;17.35;nan
46408;BME280;32110;45.724;21.276;2023-04-30T15:47:34;100372.31;;;17.35;nan
46408;BME280;32110;45.724;21.276;2023-04-30T15:50:00;100354.53;;;17.20;nan
46408;BME280;32110;45.724;21.276;2023-04-30T15:52:25;100357.44;;;17.23;nan
46408;BME280;32110;45.724;21.276;2023-04-30T15:54:50;100347.88;;;17.17;nan
46408;BME280;32110;45.724;21.276;2023-04-30T15:57:16;100340.69;;;17.13;nan
46408;BME280;32110;45.724;21.276;2023-04-30T15:59:41;100355.59;;;17.24;nan
46408;BME280;32110;45.724;21.276;2023-04-30T16:02:07;100337.47;;;17.21;nan
46408;BME280;32110;45.724;21.276;2023-04-30T16:04:32;100349.44;;;17.34;nan
46408;BME280;32110;45.724;21.276;2023-04-30T16:06:58;100341.44;;;17.39;nan
46408;BME280;32110;45.724;21.276;2023-04-30T16:09:25;100339.81;;;17.38;nan
46408;BME280;32110;45.724;21.276;2023-04-30T16:11:51;100344.63;;;17.41;nan
46408;BME280;32110;45.724;21.276;2023-04-30T16:14:17;100344.34;;;17.37;nan
46408;BME280;32110;45.724;21.276;2023-04-30T16:16:42;100341.69;;;17.37;nan
46408;BME280;32110;45.724;21.276;2023-04-30T16:19:07;100352.88;;;17.39;nan
46408;BME280;32110;45.724;21.276;2023-04-30T16:21:34;100343.84;;;17.30;nan
46408;BME280;32110;45.724;21.276;2023-04-30T16:24:03;100337.47;;;17.31;nan
46408;BME280;32110;45.724;21.276;2023-04-30T16:26:29;100358.22;;;17.34;nan
46408;BME280;32110;45.724;21.276;2023-04-30T16:28:54;100341.97;;;17.31;nan
46408;BME280;32110;45.724;21.276;2023-04-30T16:31:20;100342.50;;;17.33;nan
46408;BME280;32110;45.724;21.276;2023-04-30T16:33:47;100333.22;;;17.25;nan
46408;BME280;32110;45.724;21.276;2023-04-30T16:36:13;100350.78;;;17.31;nan
46408;BME280;32110;45.724;21.276;2023-04-30T16:38:38;100353.69;;;17.35;nan
46408;BME280;32110;45.724;21.276;2023-04-30T16:41:03;100350.75;;;17.26;nan
46408;BME280;32110;45.724;21.276;2023-04-30T16:43:29;100363.28;;;17.26;nan
46408;BME280;32110;45.724;21.276;2023-04-30T16:45:55;100369.16;;;17.22;nan
46408;BME280;32110;45.724;21.276;2023-04-30T16:48:20;100353.75;;;17.14;nan
46408;BME280;32110;45.724;21.276;2023-04-30T16:50:45;100364.91;;;17.21;nan
46408;BME280;32110;45.724;21.276;2023-04-30T16:53:11;100342.31;;;17.04;nan
46408;BME280;32110;45.724;21.276;2023-04-30T16:55:36;100355.34;;;17.05;nan
46408;BME280;32110;45.724;21.276;2023-04-30T16:58:01;100351.09;;;17.04;nan
46408;BME280;32110;45.724;21.276;2023-04-30T17:00:28;100352.19;;;16.93;nan
46408;BME280;32110;45.724;21.276;2023-04-30T17:02:53;100357.47;;;16.88;nan
46408;BME280;32110;45.724;21.276;2023-04-30T17:05:19;100348.47;;;16.84;nan
46408;BME280;32110;45.724;21.276;2023-04-30T17:07:45;100363.63;;;16.88;nan
46408;BME280;32110;45.724;21.276;2023-04-30T17:10:11;100356.44;;;16.84;nan
46408;BME280;32110;45.724;21.276;2023-04-30T17:12:38;100356.69;;;16.77;nan
46408;BME280;32110;45.724;21.276;2023-04-30T17:15:04;100369.19;;;16.76;nan
46408;BME280;32110;45.724;21.276;2023-04-30T17:17:29;100372.88;;;16.75;nan
46408;BME280;32110;45.724;21.276;2023-04-30T17:19:55;100368.91;;;16.68;nan
46408;BME280;32110;45.724;21.276;2023-04-30T17:22:22;100373.44;;;16.62;nan
46408;BME280;32110;45.724;21.276;2023-04-30T17:24:48;100377.69;;;16.58;nan
46408;BME280;32110;45.724;21.276;2023-04-30T17:27:13;100371.28;;;16.49;nan
46408;BME280;32110;45.724;21.276;2023-04-30T17:29:38;100371.53;;;16.42;nan
46408;BME280;32110;45.724;21.276;2023-04-30T17:32:04;100379.00;;;16.40;nan
46408;BME280;32110;45.724;21.276;2023-04-30T17:34:30;100386.44;;;16.38;nan
46408;BME280;32110;45.724;21.276;2023-04-30T17:36:56;100389.34;;;16.26;nan
46408;BME280;32110;45.724;21.276;2023-04-30T17:39:21;100396.00;;;16.34;nan
46408;BME280;32110;45.724;21.276;2023-04-30T17:41:47;100395.69;;;16.25;nan
46408;BME280;32110;45.724;21.276;2023-04-30T17:44:13;100394.59;;;16.11;nan
46408;BME280;32110;45.724;21.276;2023-04-30T17:46:38;100404.97;;;16.12;nan
46408;BME280;32110;45.724;21.276;2023-04-30T17:49:04;100402.00;;;16.04;nan
46408;BME280;32110;45.724;21.276;2023-04-30T17:51:31;100388.69;;;15.88;nan
46408;BME280;32110;45.724;21.276;2023-04-30T17:53:57;100401.75;;;15.95;nan
46408;BME280;32110;45.724;21.276;2023-04-30T17:56:26;100398.75;;;15.81;nan
46408;BME280;32110;45.724;21.276;2023-04-30T17:58:52;100404.06;;;15.81;nan
46408;BME280;32110;45.724;21.276;2023-04-30T18:01:20;100406.16;;;15.74;nan
46408;BME280;32110;45.724;21.276;2023-04-30T18:03:45;100390.72;;;15.66;nan
46408;BME280;32110;45.724;21.276;2023-04-30T18:06:10;100402.13;;;15.66;nan
46408;BME280;32110;45.724;21.276;2023-04-30T18:08:36;100414.38;;;15.72;nan
46408;BME280;32110;45.724;21.276;2023-04-30T18:11:01;100411.94;;;15.66;nan
46408;BME280;32110;45.724;21.276;2023-04-30T18:13:29;100412.19;;;15.59;nan
46408;BME280;32110;45.724;21.276;2023-04-30T18:15:55;100427.81;;;15.61;nan
46408;BME280;32110;45.724;21.276;2023-04-30T18:18:21;100418.72;;;15.46;nan
46408;BME280;32110;45.724;21.276;2023-04-30T18:20:46;100417.91;;;15.41;nan
46408;BME280;32110;45.724;21.276;2023-04-30T18:23:12;100418.88;;;15.29;nan
46408;BME280;32110;45.724;21.276;2023-04-30T18:25:38;100429.25;;;15.31;nan
46408;BME280;32110;45.724;21.276;2023-04-30T18:28:04;100441.72;;;15.30;nan
46408;BME280;32110;45.724;21.276;2023-04-30T18:30:31;100425.78;;;15.25;nan
46408;BME280;32110;45.724;21.276;2023-04-30T18:32:58;100442.78;;;15.35;nan
46408;BME280;32110;45.724;21.276;2023-04-30T18:35:24;100444.88;;;15.27;nan
46408;BME280;32110;45.724;21.276;2023-04-30T18:37:51;100456.50;;;15.21;nan
46408;BME280;32110;45.724;21.276;2023-04-30T18:40:16;100444.75;;;15.12;nan
46408;BME280;32110;45.724;21.276;2023-04-30T18:42:41;100441.84;;;15.08;nan
46408;BME280;32110;45.724;21.276;2023-04-30T18:45:07;100459.34;;;15.09;nan
46408;BME280;32110;45.724;21.276;2023-04-30T18:47:33;100469.44;;;15.13;nan
46408;BME280;32110;45.724;21.276;2023-04-30T18:49:58;100475.78;;;15.12;nan
46408;BME280;32110;45.724;21.276;2023-04-30T18:52:24;100476.78;;;15.05;nan
46408;BME280;32110;45.724;21.276;2023-04-30T18:54:49;100469.00;;;14.94;nan
46408;BME280;32110;45.724;21.276;2023-04-30T18:57:15;100484.66;;;14.95;nan
46408;BME280;32110;45.724;21.276;2023-04-30T18:59:42;100474.53;;;14.87;nan
46408;BME280;32110;45.724;21.276;2023-04-30T19:02:09;100478.25;;;14.91;nan
46408;BME280;32110;45.724;21.276;2023-04-30T19:04:36;100482.81;;;14.96;nan
46408;BME280;32110;45.724;21.276;2023-04-30T19:07:02;100471.28;;;14.80;nan
46408;BME280;32110;45.724;21.276;2023-04-30T19:09:28;100481.94;;;14.85;nan
46408;BME280;32110;45.724;21.276;2023-04-30T19:11:53;100476.50;;;14.75;nan
46408;BME280;32110;45.724;21.276;2023-04-30T19:14:18;100459.22;;;14.67;nan
46408;BME280;32110;45.724;21.276;2023-04-30T19:16:44;100484.97;;;14.72;nan
46408;BME280;32110;45.724;21.276;2023-04-30T19:19:10;100471.81;;;14.55;nan
46408;BME280;32110;45.724;21.276;2023-04-30T19:21:35;100477.47;;;14.63;nan
46408;BME280;32110;45.724;21.276;2023-04-30T19:24:01;100480.09;;;14.58;nan
46408;BME280;32110;45.724;21.276;2023-04-30T19:26:30;100486.19;;;14.59;nan
46408;BME280;32110;45.724;21.276;2023-04-30T19:28:56;100485.50;;;14.46;nan
46408;BME280;32110;45.724;21.276;2023-04-30T19:31:21;100492.38;;;14.47;nan
46408;BME280;32110;45.724;21.276;2023-04-30T19:33:48;100489.69;;;14.42;nan
46408;BME280;32110;45.724;21.276;2023-04-30T19:36:13;100494.13;;;14.37;nan
46408;BME280;32110;45.724;21.276;2023-04-30T19:38:39;100491.84;;;14.23;nan
46408;BME280;32110;45.724;21.276;2023-04-30T19:41:05;100492.91;;;14.22;nan
46408;BME280;32110;45.724;21.276;2023-04-30T19:43:31;100502.19;;;14.25;nan
46408;BME280;32110;45.724;21.276;2023-04-30T19:45:57;100514.09;;;14.22;nan
46408;BME280;32110;45.724;21.276;2023-04-30T19:48:24;100513.47;;;14.15;nan
46408;BME280;32110;45.724;21.276;2023-04-30T19:50:51;100519.50;;;14.11;nan
46408;BME280;32110;45.724;21.276;2023-04-30T19:53:18;100495.94;;;13.92;nan
46408;BME280;32110;45.724;21.276;2023-04-30T19:55:45;100514.31;;;13.99;nan
46408;BME280;32110;45.724;21.276;2023-04-30T19:58:11;100506.53;;;13.92;nan
46408;BME280;32110;45.724;21.276;2023-04-30T20:00:40;100497.41;;;13.83;nan
46408;BME280;32110;45.724;21.276;2023-04-30T20:03:06;100497.03;;;13.74;nan
46408;BME280;32110;45.724;21.276;2023-04-30T20:05:33;100518.91;;;13.87;nan
46408;BME280;32110;45.724;21.276;2023-04-30T20:08:03;100511.63;;;13.77;nan
46408;BME280;32110;45.724;21.276;2023-04-30T20:10:30;100506.25;;;13.72;nan
46408;BME280;32110;45.724;21.276;2023-04-30T20:12:56;100511.06;;;13.75;nan
46408;BME280;32110;45.724;21.276;2023-04-30T20:15:22;100513.88;;;13.68;nan
46408;BME280;32110;45.724;21.276;2023-04-30T20:17:49;100520.22;;;13.67;nan
46408;BME280;32110;45.724;21.276;2023-04-30T20:20:15;100507.31;;;13.54;nan
46408;BME280;32110;45.724;21.276;2023-04-30T20:22:41;100512.38;;;13.55;nan
46408;BME280;32110;45.724;21.276;2023-04-30T20:25:07;100524.31;;;13.58;nan
46408;BME280;32110;45.724;21.276;2023-04-30T20:27:32;100523.19;;;13.37;nan
46408;BME280;32110;45.724;21.276;2023-04-30T20:30:00;100531.69;;;13.39;nan
46408;BME280;32110;45.724;21.276;2023-04-30T20:32:28;100531.91;;;13.37;nan
46408;BME280;32110;45.724;21.276;2023-04-30T20:34:54;100526.38;;;13.22;nan
46408;BME280;32110;45.724;21.276;2023-04-30T20:37:19;100545.28;;;13.31;nan
46408;BME280;32110;45.724;21.276;2023-04-30T20:39:44;100546.69;;;13.22;nan
46408;BME280;32110;45.724;21.276;2023-04-30T20:42:10;100553.44;;;13.12;nan
46408;BME280;32110;45.724;21.276;2023-04-30T20:44:35;100562.06;;;13.08;nan